sensor_id;sensor_type;location;lat;lon;timestamp;P1;durP1;ratioP1;P2;durP2;ratioP2
71975;SDS011;68326;52.124;5.424;2023-05-20T00:02:23;6.40;;;2.40;;
71975;SDS011;68326;52.124;5.424;2023-05-20T00:04:50;6.70;;;2.90;;
71975;SDS011;68326;52.124;5.424;2023-05-20T00:07:17;7.93;;;2.22;;
71975;SDS011;68326;52.124;5.424;2023-05-20T00:09:43;6.80;;;2.35;;
71975;SDS011;68326;52.124;5.424;2023-05-20T00:12:10;5.40;;;2.80;;
71975;SDS011;68326;52.124;5.424;2023-05-20T00:14:37;7.70;;;2.40;;
71975;SDS011;68326;52.124;5.424;2023-05-20T00:17:03;6.27;;;2.03;;
71975;SDS011;68326;52.124;5.424;2023-05-20T00:19:30;7.72;;;2.47;;
71975;SDS011;68326;52.124;5.424;2023-05-20T00:21:57;7.53;;;2.35;;
71975;SDS011;68326;52.124;5.424;2023-05-20T00:24:23;6.93;;;2.45;;
71975;SDS011;68326;52.124;5.424;2023-05-20T00:26:51;8.43;;;3.33;;
71975;SDS011;68326;52.124;5.424;2023-05-20T00:29:17;5.33;;;2.20;;
71975;SDS011;68326;52.124;5.424;2023-05-20T00:31:44;6.45;;;2.95;;
71975;SDS011;68326;52.124;5.424;2023-05-20T00:34:10;7.65;;;2.80;;
71975;SDS011;68326;52.124;5.424;2023-05-20T00:36:37;6.28;;;2.33;;
71975;SDS011;68326;52.124;5.424;2023-05-20T00:39:03;7.30;;;2.63;;
71975;SDS011;68326;52.124;5.424;2023-05-20T00:41:30;7.13;;;2.43;;
71975;SDS011;68326;52.124;5.424;2023-05-20T00:43:57;6.38;;;2.42;;
71975;SDS011;68326;52.124;5.424;2023-05-20T00:46:24;7.25;;;2.22;;
71975;SDS011;68326;52.124;5.424;2023-05-20T00:48:51;6.68;;;2.50;;
71975;SDS011;68326;52.124;5.424;2023-05-20T00:51:18;5.68;;;2.28;;
71975;SDS011;68326;52.124;5.424;2023-05-20T00:53:45;5.60;;;2.08;;
71975;SDS011;68326;52.124;5.424;2023-05-20T00:56:12;5.55;;;2.47;;
71975;SDS011;68326;52.124;5.424;2023-05-20T00:58:39;7.03;;;2.20;;
71975;SDS011;68326;52.124;5.424;2023-05-20T01:01:06;8.50;;;2.65;;
71975;SDS011;68326;52.124;5.424;2023-05-20T01:03:32;6.90;;;2.78;;
71975;SDS011;68326;52.124;5.424;2023-05-20T01:06:00;7.07;;;2.73;;
71975;SDS011;68326;52.124;5.424;2023-05-20T01:08:27;6.88;;;2.70;;
71975;SDS011;68326;52.124;5.424;2023-05-20T01:10:57;6.97;;;2.58;;
71975;SDS011;68326;52.124;5.424;2023-05-20T01:13:31;9.23;;;2.47;;
71975;SDS011;68326;52.124;5.424;2023-05-20T01:16:02;4.53;;;2.70;;
71975;SDS011;68326;52.124;5.424;2023-05-20T01:18:30;6.73;;;2.63;;
71975;SDS011;68326;52.124;5.424;2023-05-20T01:20:58;5.35;;;2.28;;
71975;SDS011;68326;52.124;5.424;2023-05-20T01:23:37;8.07;;;3.08;;
71975;SDS011;68326;52.124;5.424;2023-05-20T01:26:05;9.63;;;3.00;;
71975;SDS011;68326;52.124;5.424;2023-05-20T01:28:32;5.40;;;2.67;;
71975;SDS011;68326;52.124;5.424;2023-05-20T01:31:01;5.33;;;2.27;;
71975;SDS011;68326;52.124;5.424;2023-05-20T01:33:31;8.88;;;2.65;;
71975;SDS011;68326;52.124;5.424;2023-05-20T01:36:01;5.53;;;2.63;;
71975;SDS011;68326;52.124;5.424;2023-05-20T01:38:28;8.13;;;3.15;;
71975;SDS011;68326;52.124;5.424;2023-05-20T01:40:56;8.23;;;3.00;;
71975;SDS011;68326;52.124;5.424;2023-05-20T01:43:24;4.77;;;2.60;;
71975;SDS011;68326;52.124;5.424;2023-05-20T01:45:52;7.32;;;2.95;;
71975;SDS011;68326;52.124;5.424;2023-05-20T01:48:19;4.57;;;2.50;;
71975;SDS011;68326;52.124;5.424;2023-05-20T01:50:46;9.02;;;2.55;;
71975;SDS011;68326;52.124;5.424;2023-05-20T01:53:12;5.70;;;2.70;;
71975;SDS011;68326;52.124;5.424;2023-05-20T01:55:39;8.43;;;2.30;;
71975;SDS011;68326;52.124;5.424;2023-05-20T01:58:05;8.77;;;2.33;;
71975;SDS011;68326;52.124;5.424;2023-05-20T02:00:32;7.07;;;2.38;;
71975;SDS011;68326;52.124;5.424;2023-05-20T02:03:00;6.82;;;2.63;;
71975;SDS011;68326;52.124;5.424;2023-05-20T02:05:28;9.25;;;2.63;;
71975;SDS011;68326;52.124;5.424;2023-05-20T02:07:55;5.20;;;2.30;;
71975;SDS011;68326;52.124;5.424;2023-05-20T02:10:22;7.95;;;2.35;;
71975;SDS011;68326;52.124;5.424;2023-05-20T02:12:48;5.13;;;2.47;;
71975;SDS011;68326;52.124;5.424;2023-05-20T02:15:15;7.43;;;3.28;;
71975;SDS011;68326;52.124;5.424;2023-05-20T02:17:41;5.80;;;2.72;;
71975;SDS011;68326;52.124;5.424;2023-05-20T02:20:11;3.67;;;2.40;;
71975;SDS011;68326;52.124;5.424;2023-05-20T02:22:38;4.03;;;2.50;;
71975;SDS011;68326;52.124;5.424;2023-05-20T02:25:05;6.78;;;2.40;;
71975;SDS011;68326;52.124;5.424;2023-05-20T02:27:33;6.25;;;2.42;;
71975;SDS011;68326;52.124;5.424;2023-05-20T02:30:00;7.10;;;2.85;;
71975;SDS011;68326;52.124;5.424;2023-05-20T02:32:27;7.23;;;2.87;;
71975;SDS011;68326;52.124;5.424;2023-05-20T02:34:54;6.05;;;2.90;;
71975;SDS011;68326;52.124;5.424;2023-05-20T02:37:21;6.30;;;2.30;;
71975;SDS011;68326;52.124;5.424;2023-05-20T02:39:47;9.23;;;3.20;;
71975;SDS011;68326;52.124;5.424;2023-05-20T02:42:14;6.63;;;2.65;;
71975;SDS011;68326;52.124;5.424;2023-05-20T02:44:40;6.17;;;2.27;;
71975;SDS011;68326;52.124;5.424;2023-05-20T02:47:07;5.20;;;2.63;;
71975;SDS011;68326;52.124;5.424;2023-05-20T02:49:33;9.13;;;2.95;;
71975;SDS011;68326;52.124;5.424;2023-05-20T02:52:00;6.25;;;2.72;;
71975;SDS011;68326;52.124;5.424;2023-05-20T02:54:27;6.68;;;2.33;;
71975;SDS011;68326;52.124;5.424;2023-05-20T02:56:53;8.17;;;2.83;;
71975;SDS011;68326;52.124;5.424;2023-05-20T02:59:20;5.03;;;2.45;;
71975;SDS011;68326;52.124;5.424;2023-05-20T03:01:46;5.88;;;2.78;;
71975;SDS011;68326;52.124;5.424;2023-05-20T03:04:13;6.78;;;2.65;;
71975;SDS011;68326;52.124;5.424;2023-05-20T03:06:40;6.60;;;2.88;;
71975;SDS011;68326;52.124;5.424;2023-05-20T03:09:09;6.20;;;2.87;;
71975;SDS011;68326;52.124;5.424;2023-05-20T03:11:36;5.60;;;2.53;;
71975;SDS011;68326;52.124;5.424;2023-05-20T03:14:03;6.60;;;2.70;;
71975;SDS011;68326;52.124;5.424;2023-05-20T03:16:29;6.05;;;3.40;;
71975;SDS011;68326;52.124;5.424;2023-05-20T03:18:56;6.53;;;3.13;;
71975;SDS011;68326;52.124;5.424;2023-05-20T03:21:22;8.20;;;2.70;;
71975;SDS011;68326;52.124;5.424;2023-05-20T03:23:49;6.43;;;2.78;;
71975;SDS011;68326;52.124;5.424;2023-05-20T03:26:16;6.25;;;3.10;;
71975;SDS011;68326;52.124;5.424;2023-05-20T03:28:42;5.78;;;2.75;;
71975;SDS011;68326;52.124;5.424;2023-05-20T03:31:09;5.07;;;2.88;;
71975;SDS011;68326;52.124;5.424;2023-05-20T03:33:35;6.27;;;2.90;;
71975;SDS011;68326;52.124;5.424;2023-05-20T03:36:02;7.10;;;2.65;;
71975;SDS011;68326;52.124;5.424;2023-05-20T03:38:29;5.10;;;2.97;;
71975;SDS011;68326;52.124;5.424;2023-05-20T03:40:55;6.65;;;3.13;;
71975;SDS011;68326;52.124;5.424;2023-05-20T03:43:22;7.85;;;3.10;;
71975;SDS011;68326;52.124;5.424;2023-05-20T03:45:50;8.77;;;3.63;;
71975;SDS011;68326;52.124;5.424;2023-05-20T03:48:16;5.82;;;2.78;;
71975;SDS011;68326;52.124;5.424;2023-05-20T03:50:43;7.03;;;3.30;;
71975;SDS011;68326;52.124;5.424;2023-05-20T03:53:09;7.50;;;2.67;;
71975;SDS011;68326;52.124;5.424;2023-05-20T03:55:36;6.07;;;2.92;;
71975;SDS011;68326;52.124;5.424;2023-05-20T03:58:02;5.67;;;2.70;;
71975;SDS011;68326;52.124;5.424;2023-05-20T04:00:29;7.20;;;3.10;;
71975;SDS011;68326;52.124;5.424;2023-05-20T04:02:57;9.82;;;3.33;;
71975;SDS011;68326;52.124;5.424;2023-05-20T04:05:23;7.90;;;3.60;;
71975;SDS011;68326;52.124;5.424;2023-05-20T04:07:50;7.38;;;3.10;;
71975;SDS011;68326;52.124;5.424;2023-05-20T04:10:17;7.50;;;2.77;;
71975;SDS011;68326;52.124;5.424;2023-05-20T04:12:45;7.68;;;3.03;;
71975;SDS011;68326;52.124;5.424;2023-05-20T04:15:12;10.48;;;3.53;;
71975;SDS011;68326;52.124;5.424;2023-05-20T04:17:38;8.50;;;3.38;;
71975;SDS011;68326;52.124;5.424;2023-05-20T04:20:06;6.65;;;3.15;;
71975;SDS011;68326;52.124;5.424;2023-05-20T04:22:33;5.20;;;2.90;;
71975;SDS011;68326;52.124;5.424;2023-05-20T04:25:00;6.13;;;2.78;;
71975;SDS011;68326;52.124;5.424;2023-05-20T04:27:28;8.65;;;3.20;;
71975;SDS011;68326;52.124;5.424;2023-05-20T04:29:55;9.73;;;3.35;;
71975;SDS011;68326;52.124;5.424;2023-05-20T04:32:23;7.03;;;2.75;;
71975;SDS011;68326;52.124;5.424;2023-05-20T04:34:52;8.80;;;3.40;;
71975;SDS011;68326;52.124;5.424;2023-05-20T04:37:20;7.85;;;3.10;;
71975;SDS011;68326;52.124;5.424;2023-05-20T04:39:47;7.32;;;3.13;;
71975;SDS011;68326;52.124;5.424;2023-05-20T04:42:16;6.15;;;3.15;;
71975;SDS011;68326;52.124;5.424;2023-05-20T04:44:43;6.20;;;2.88;;
71975;SDS011;68326;52.124;5.424;2023-05-20T04:47:11;9.00;;;3.27;;
71975;SDS011;68326;52.124;5.424;2023-05-20T04:49:38;7.00;;;2.78;;
71975;SDS011;68326;52.124;5.424;2023-05-20T04:52:04;6.22;;;2.80;;
71975;SDS011;68326;52.124;5.424;2023-05-20T04:54:31;5.30;;;3.35;;
71975;SDS011;68326;52.124;5.424;2023-05-20T04:56:58;5.45;;;2.78;;
71975;SDS011;68326;52.124;5.424;2023-05-20T04:59:24;6.33;;;2.80;;
71975;SDS011;68326;52.124;5.424;2023-05-20T05:01:51;7.63;;;2.80;;
71975;SDS011;68326;52.124;5.424;2023-05-20T05:04:17;6.75;;;3.22;;
71975;SDS011;68326;52.124;5.424;2023-05-20T05:06:46;7.70;;;3.30;;
71975;SDS011;68326;52.124;5.424;2023-05-20T05:09:13;8.93;;;3.35;;
71975;SDS011;68326;52.124;5.424;2023-05-20T05:11:40;8.27;;;2.97;;
71975;SDS011;68326;52.124;5.424;2023-05-20T05:14:07;6.90;;;3.10;;
71975;SDS011;68326;52.124;5.424;2023-05-20T05:16:33;7.50;;;3.05;;
71975;SDS011;68326;52.124;5.424;2023-05-20T05:19:00;7.78;;;3.10;;
71975;SDS011;68326;52.124;5.424;2023-05-20T05:21:27;9.80;;;2.90;;
71975;SDS011;68326;52.124;5.424;2023-05-20T05:23:53;8.03;;;2.90;;
71975;SDS011;68326;52.124;5.424;2023-05-20T05:26:23;4.80;;;2.80;;
71975;SDS011;68326;52.124;5.424;2023-05-20T05:28:50;10.10;;;3.03;;
71975;SDS011;68326;52.124;5.424;2023-05-20T05:31:16;8.38;;;2.83;;
71975;SDS011;68326;52.124;5.424;2023-05-20T05:33:43;6.28;;;2.70;;
71975;SDS011;68326;52.124;5.424;2023-05-20T05:36:09;6.70;;;3.27;;
71975;SDS011;68326;52.124;5.424;2023-05-20T05:38:36;6.78;;;2.67;;
71975;SDS011;68326;52.124;5.424;2023-05-20T05:41:02;6.32;;;2.80;;
71975;SDS011;68326;52.124;5.424;2023-05-20T05:43:29;5.75;;;2.92;;
71975;SDS011;68326;52.124;5.424;2023-05-20T05:45:55;4.65;;;2.47;;
71975;SDS011;68326;52.124;5.424;2023-05-20T05:48:22;7.80;;;2.70;;
71975;SDS011;68326;52.124;5.424;2023-05-20T05:50:49;7.60;;;2.90;;
71975;SDS011;68326;52.124;5.424;2023-05-20T05:53:15;6.18;;;2.78;;
71975;SDS011;68326;52.124;5.424;2023-05-20T05:55:42;6.00;;;2.63;;
71975;SDS011;68326;52.124;5.424;2023-05-20T05:58:08;6.15;;;3.13;;
71975;SDS011;68326;52.124;5.424;2023-05-20T06:00:35;6.27;;;2.47;;
71975;SDS011;68326;52.124;5.424;2023-05-20T06:03:01;4.22;;;2.72;;
71975;SDS011;68326;52.124;5.424;2023-05-20T06:05:29;5.75;;;2.53;;
71975;SDS011;68326;52.124;5.424;2023-05-20T06:07:56;3.70;;;2.03;;
71975;SDS011;68326;52.124;5.424;2023-05-20T06:10:23;5.72;;;2.25;;
71975;SDS011;68326;52.124;5.424;2023-05-20T06:12:49;4.40;;;2.70;;
71975;SDS011;68326;52.124;5.424;2023-05-20T06:15:16;6.95;;;2.40;;
71975;SDS011;68326;52.124;5.424;2023-05-20T06:17:42;5.00;;;2.30;;
71975;SDS011;68326;52.124;5.424;2023-05-20T06:20:09;5.55;;;2.40;;
71975;SDS011;68326;52.124;5.424;2023-05-20T06:22:36;4.43;;;2.50;;
71975;SDS011;68326;52.124;5.424;2023-05-20T06:25:03;5.43;;;2.53;;
71975;SDS011;68326;52.124;5.424;2023-05-20T06:27:31;5.22;;;2.45;;
71975;SDS011;68326;52.124;5.424;2023-05-20T06:29:57;9.25;;;3.00;;
71975;SDS011;68326;52.124;5.424;2023-05-20T06:32:24;5.57;;;2.38;;
71975;SDS011;68326;52.124;5.424;2023-05-20T06:34:50;4.10;;;1.98;;
71975;SDS011;68326;52.124;5.424;2023-05-20T06:37:17;4.78;;;2.20;;
71975;SDS011;68326;52.124;5.424;2023-05-20T06:39:44;5.72;;;2.20;;
71975;SDS011;68326;52.124;5.424;2023-05-20T06:42:12;5.18;;;2.30;;
71975;SDS011;68326;52.124;5.424;2023-05-20T06:44:39;5.20;;;2.03;;
71975;SDS011;68326;52.124;5.424;2023-05-20T06:47:05;5.88;;;2.40;;
71975;SDS011;68326;52.124;5.424;2023-05-20T06:49:32;4.13;;;2.03;;
71975;SDS011;68326;52.124;5.424;2023-05-20T06:51:58;3.40;;;2.17;;
71975;SDS011;68326;52.124;5.424;2023-05-20T06:54:25;4.43;;;1.85;;
71975;SDS011;68326;52.124;5.424;2023-05-20T06:56:51;5.72;;;1.75;;
71975;SDS011;68326;52.124;5.424;2023-05-20T06:59:18;4.88;;;2.00;;
71975;SDS011;68326;52.124;5.424;2023-05-20T07:01:44;4.70;;;2.00;;
71975;SDS011;68326;52.124;5.424;2023-05-20T07:04:11;3.50;;;1.90;;
71975;SDS011;68326;52.124;5.424;2023-05-20T07:06:38;5.68;;;2.10;;
71975;SDS011;68326;52.124;5.424;2023-05-20T07:09:04;4.93;;;1.73;;
71975;SDS011;68326;52.124;5.424;2023-05-20T07:11:31;3.35;;;2.17;;
71975;SDS011;68326;52.124;5.424;2023-05-20T07:13:57;3.03;;;1.73;;
71975;SDS011;68326;52.124;5.424;2023-05-20T07:16:24;5.07;;;2.00;;
71975;SDS011;68326;52.124;5.424;2023-05-20T07:18:50;4.20;;;1.60;;
71975;SDS011;68326;52.124;5.424;2023-05-20T07:21:17;2.25;;;1.75;;
71975;SDS011;68326;52.124;5.424;2023-05-20T07:23:44;4.57;;;1.95;;
71975;SDS011;68326;52.124;5.424;2023-05-20T07:26:10;5.50;;;1.90;;
71975;SDS011;68326;52.124;5.424;2023-05-20T07:28:37;4.87;;;1.93;;
71975;SDS011;68326;52.124;5.424;2023-05-20T07:31:04;3.40;;;1.88;;
71975;SDS011;68326;52.124;5.424;2023-05-20T07:33:30;3.92;;;1.45;;
71975;SDS011;68326;52.124;5.424;2023-05-20T07:35:58;2.63;;;1.30;;
71975;SDS011;68326;52.124;5.424;2023-05-20T07:38:24;3.60;;;1.35;;
71975;SDS011;68326;52.124;5.424;2023-05-20T07:40:51;2.93;;;1.30;;
71975;SDS011;68326;52.124;5.424;2023-05-20T07:43:17;5.82;;;1.50;;
71975;SDS011;68326;52.124;5.424;2023-05-20T07:45:44;5.50;;;1.52;;
71975;SDS011;68326;52.124;5.424;2023-05-20T07:48:11;2.13;;;1.27;;
71975;SDS011;68326;52.124;5.424;2023-05-20T07:50:38;3.95;;;1.30;;
71975;SDS011;68326;52.124;5.424;2023-05-20T07:53:05;4.20;;;1.30;;
71975;SDS011;68326;52.124;5.424;2023-05-20T07:55:34;4.50;;;1.17;;
71975;SDS011;68326;52.124;5.424;2023-05-20T07:58:02;3.08;;;1.05;;
71975;SDS011;68326;52.124;5.424;2023-05-20T08:00:29;2.88;;;1.08;;
71975;SDS011;68326;52.124;5.424;2023-05-20T08:02:55;4.18;;;1.17;;
71975;SDS011;68326;52.124;5.424;2023-05-20T08:05:22;2.00;;;0.83;;
71975;SDS011;68326;52.124;5.424;2023-05-20T08:07:49;2.28;;;1.15;;
71975;SDS011;68326;52.124;5.424;2023-05-20T08:10:15;2.30;;;0.90;;
71975;SDS011;68326;52.124;5.424;2023-05-20T08:12:42;1.60;;;1.00;;
71975;SDS011;68326;52.124;5.424;2023-05-20T08:15:08;2.63;;;1.42;;
71975;SDS011;68326;52.124;5.424;2023-05-20T08:17:35;2.57;;;0.90;;
71975;SDS011;68326;52.124;5.424;2023-05-20T08:20:04;1.83;;;1.10;;
71975;SDS011;68326;52.124;5.424;2023-05-20T08:22:31;1.90;;;0.77;;
71975;SDS011;68326;52.124;5.424;2023-05-20T08:24:57;1.73;;;0.90;;
71975;SDS011;68326;52.124;5.424;2023-05-20T08:27:24;2.50;;;0.98;;
71975;SDS011;68326;52.124;5.424;2023-05-20T08:29:50;3.57;;;0.97;;
71975;SDS011;68326;52.124;5.424;2023-05-20T08:32:16;1.50;;;0.88;;
71975;SDS011;68326;52.124;5.424;2023-05-20T08:34:43;2.05;;;0.70;;
71975;SDS011;68326;52.124;5.424;2023-05-20T08:37:10;2.15;;;0.80;;
71975;SDS011;68326;52.124;5.424;2023-05-20T08:39:36;2.50;;;0.77;;
71975;SDS011;68326;52.124;5.424;2023-05-20T08:42:03;1.60;;;0.70;;
71975;SDS011;68326;52.124;5.424;2023-05-20T08:44:32;3.22;;;0.70;;
71975;SDS011;68326;52.124;5.424;2023-05-20T08:46:59;1.52;;;0.70;;
71975;SDS011;68326;52.124;5.424;2023-05-20T08:49:28;2.42;;;1.02;;
71975;SDS011;68326;52.124;5.424;2023-05-20T08:51:56;3.08;;;0.80;;
71975;SDS011;68326;52.124;5.424;2023-05-20T08:54:25;1.67;;;0.83;;
71975;SDS011;68326;52.124;5.424;2023-05-20T08:57:09;2.95;;;0.80;;
71975;SDS011;68326;52.124;5.424;2023-05-20T08:59:40;1.50;;;0.75;;
71975;SDS011;68326;52.124;5.424;2023-05-20T09:02:08;2.67;;;0.80;;
71975;SDS011;68326;52.124;5.424;2023-05-20T09:04:36;4.95;;;1.00;;
71975;SDS011;68326;52.124;5.424;2023-05-20T09:07:03;4.67;;;0.80;;
71975;SDS011;68326;52.124;5.424;2023-05-20T09:09:33;4.55;;;1.15;;
71975;SDS011;68326;52.124;5.424;2023-05-20T09:12:01;1.80;;;0.75;;
71975;SDS011;68326;52.124;5.424;2023-05-20T09:14:29;1.98;;;1.00;;
71975;SDS011;68326;52.124;5.424;2023-05-20T09:16:56;2.20;;;1.15;;
71975;SDS011;68326;52.124;5.424;2023-05-20T09:19:23;1.90;;;0.77;;
71975;SDS011;68326;52.124;5.424;2023-05-20T09:21:53;4.53;;;1.10;;
71975;SDS011;68326;52.124;5.424;2023-05-20T09:24:23;3.35;;;1.10;;
71975;SDS011;68326;52.124;5.424;2023-05-20T09:26:51;2.58;;;0.80;;
71975;SDS011;68326;52.124;5.424;2023-05-20T09:29:18;2.17;;;0.82;;
71975;SDS011;68326;52.124;5.424;2023-05-20T09:31:47;4.83;;;1.23;;
71975;SDS011;68326;52.124;5.424;2023-05-20T09:34:15;4.32;;;1.00;;
71975;SDS011;68326;52.124;5.424;2023-05-20T09:36:43;7.95;;;1.00;;
71975;SDS011;68326;52.124;5.424;2023-05-20T09:39:11;1.83;;;0.77;;
71975;SDS011;68326;52.124;5.424;2023-05-20T09:41:48;3.88;;;0.93;;
71975;SDS011;68326;52.124;5.424;2023-05-20T09:44:22;3.30;;;0.87;;
71975;SDS011;68326;52.124;5.424;2023-05-20T09:46:49;5.95;;;1.08;;
71975;SDS011;68326;52.124;5.424;2023-05-20T09:49:16;4.00;;;0.90;;
71975;SDS011;68326;52.124;5.424;2023-05-20T09:51:44;3.38;;;1.10;;
71975;SDS011;68326;52.124;5.424;2023-05-20T09:54:11;2.00;;;0.85;;
71975;SDS011;68326;52.124;5.424;2023-05-20T09:56:39;3.37;;;1.10;;
71975;SDS011;68326;52.124;5.424;2023-05-20T09:59:07;3.30;;;0.98;;
71975;SDS011;68326;52.124;5.424;2023-05-20T10:01:35;2.53;;;0.82;;
71975;SDS011;68326;52.124;5.424;2023-05-20T10:04:03;2.40;;;1.00;;
71975;SDS011;68326;52.124;5.424;2023-05-20T10:06:40;3.60;;;1.77;;
71975;SDS011;68326;52.124;5.424;2023-05-20T10:09:17;1.90;;;1.00;;
71975;SDS011;68326;52.124;5.424;2023-05-20T10:12:05;3.58;;;1.00;;
71975;SDS011;68326;52.124;5.424;2023-05-20T10:17:21;3.35;;;0.82;;
71975;SDS011;68326;52.124;5.424;2023-05-20T10:19:48;2.53;;;1.00;;
71975;SDS011;68326;52.124;5.424;2023-05-20T10:22:25;2.30;;;0.93;;
71975;SDS011;68326;52.124;5.424;2023-05-20T10:24:58;3.65;;;1.17;;
71975;SDS011;68326;52.124;5.424;2023-05-20T10:27:25;3.00;;;0.93;;
71975;SDS011;68326;52.124;5.424;2023-05-20T10:29:53;2.55;;;0.98;;
71975;SDS011;68326;52.124;5.424;2023-05-20T10:32:25;1.88;;;1.00;;
71975;SDS011;68326;52.124;5.424;2023-05-20T10:35:00;4.10;;;0.97;;
71975;SDS011;68326;52.124;5.424;2023-05-20T10:37:40;2.25;;;1.13;;
71975;SDS011;68326;52.124;5.424;2023-05-20T10:40:09;1.67;;;1.00;;
71975;SDS011;68326;52.124;5.424;2023-05-20T10:42:38;3.92;;;1.10;;
71975;SDS011;68326;52.124;5.424;2023-05-20T10:45:05;1.95;;;0.98;;
71975;SDS011;68326;52.124;5.424;2023-05-20T10:47:32;3.60;;;1.10;;
71975;SDS011;68326;52.124;5.424;2023-05-20T10:50:00;2.58;;;1.00;;
71975;SDS011;68326;52.124;5.424;2023-05-20T10:52:31;3.72;;;1.20;;
71975;SDS011;68326;52.124;5.424;2023-05-20T10:54:59;1.63;;;0.93;;
71975;SDS011;68326;52.124;5.424;2023-05-20T10:57:26;3.15;;;1.20;;
71975;SDS011;68326;52.124;5.424;2023-05-20T10:59:54;2.60;;;1.10;;
71975;SDS011;68326;52.124;5.424;2023-05-20T11:02:21;3.58;;;1.10;;
71975;SDS011;68326;52.124;5.424;2023-05-20T11:04:52;3.55;;;0.85;;
71975;SDS011;68326;52.124;5.424;2023-05-20T11:07:28;2.50;;;1.02;;
71975;SDS011;68326;52.124;5.424;2023-05-20T11:09:55;4.45;;;1.17;;
71975;SDS011;68326;52.124;5.424;2023-05-20T11:12:23;6.07;;;1.10;;
71975;SDS011;68326;52.124;5.424;2023-05-20T11:14:51;3.50;;;1.20;;
71975;SDS011;68326;52.124;5.424;2023-05-20T11:17:18;1.80;;;0.98;;
71975;SDS011;68326;52.124;5.424;2023-05-20T11:19:45;3.38;;;1.08;;
71975;SDS011;68326;52.124;5.424;2023-05-20T11:22:13;6.28;;;1.02;;
71975;SDS011;68326;52.124;5.424;2023-05-20T11:24:39;2.50;;;1.00;;
71975;SDS011;68326;52.124;5.424;2023-05-20T11:27:06;1.63;;;0.90;;
71975;SDS011;68326;52.124;5.424;2023-05-20T11:29:33;3.25;;;0.95;;
71975;SDS011;68326;52.124;5.424;2023-05-20T11:32:00;2.45;;;1.13;;
71975;SDS011;68326;52.124;5.424;2023-05-20T11:34:33;4.25;;;1.27;;
71975;SDS011;68326;52.124;5.424;2023-05-20T11:37:07;2.90;;;0.93;;
71975;SDS011;68326;52.124;5.424;2023-05-20T11:39:35;2.03;;;0.70;;
71975;SDS011;68326;52.124;5.424;2023-05-20T11:42:02;4.07;;;1.48;;
71975;SDS011;68326;52.124;5.424;2023-05-20T11:44:31;2.85;;;1.30;;
71975;SDS011;68326;52.124;5.424;2023-05-20T11:47:01;2.42;;;1.10;;
71975;SDS011;68326;52.124;5.424;2023-05-20T11:49:28;2.43;;;1.20;;
71975;SDS011;68326;52.124;5.424;2023-05-20T11:51:56;2.53;;;1.73;;
71975;SDS011;68326;52.124;5.424;2023-05-20T11:54:22;2.55;;;1.23;;
71975;SDS011;68326;52.124;5.424;2023-05-20T11:56:50;2.15;;;1.17;;
71975;SDS011;68326;52.124;5.424;2023-05-20T11:59:16;1.92;;;1.38;;
71975;SDS011;68326;52.124;5.424;2023-05-20T12:01:43;2.77;;;1.13;;
71975;SDS011;68326;52.124;5.424;2023-05-20T12:04:11;2.50;;;1.08;;
71975;SDS011;68326;52.124;5.424;2023-05-20T12:06:41;2.17;;;0.93;;
71975;SDS011;68326;52.124;5.424;2023-05-20T12:09:09;3.28;;;1.08;;
71975;SDS011;68326;52.124;5.424;2023-05-20T12:11:36;1.42;;;0.90;;
71975;SDS011;68326;52.124;5.424;2023-05-20T12:14:07;2.50;;;1.30;;
71975;SDS011;68326;52.124;5.424;2023-05-20T12:16:34;1.65;;;0.90;;
71975;SDS011;68326;52.124;5.424;2023-05-20T12:19:01;4.18;;;0.82;;
71975;SDS011;68326;52.124;5.424;2023-05-20T12:21:28;3.20;;;0.88;;
71975;SDS011;68326;52.124;5.424;2023-05-20T12:23:55;4.32;;;1.05;;
71975;SDS011;68326;52.124;5.424;2023-05-20T12:26:23;2.13;;;1.00;;
71975;SDS011;68326;52.124;5.424;2023-05-20T12:28:51;1.70;;;0.93;;
71975;SDS011;68326;52.124;5.424;2023-05-20T12:31:18;1.90;;;1.20;;
71975;SDS011;68326;52.124;5.424;2023-05-20T12:33:44;2.05;;;0.80;;
71975;SDS011;68326;52.124;5.424;2023-05-20T12:36:11;3.38;;;0.85;;
71975;SDS011;68326;52.124;5.424;2023-05-20T12:38:38;3.03;;;1.10;;
71975;SDS011;68326;52.124;5.424;2023-05-20T12:41:05;3.00;;;1.25;;
71975;SDS011;68326;52.124;5.424;2023-05-20T12:43:31;2.97;;;1.00;;
71975;SDS011;68326;52.124;5.424;2023-05-20T12:46:01;2.33;;;1.00;;
71975;SDS011;68326;52.124;5.424;2023-05-20T12:48:28;3.72;;;1.02;;
71975;SDS011;68326;52.124;5.424;2023-05-20T12:50:55;2.57;;;1.30;;
71975;SDS011;68326;52.124;5.424;2023-05-20T12:53:22;2.40;;;1.00;;
71975;SDS011;68326;52.124;5.424;2023-05-20T12:55:48;2.08;;;0.75;;
71975;SDS011;68326;52.124;5.424;2023-05-20T12:58:15;2.95;;;0.90;;
71975;SDS011;68326;52.124;5.424;2023-05-20T13:00:41;1.45;;;0.90;;
71975;SDS011;68326;52.124;5.424;2023-05-20T13:03:08;2.47;;;1.10;;
71975;SDS011;68326;52.124;5.424;2023-05-20T13:05:35;2.53;;;1.17;;
71975;SDS011;68326;52.124;5.424;2023-05-20T13:08:01;1.40;;;0.98;;
71975;SDS011;68326;52.124;5.424;2023-05-20T13:10:28;3.95;;;1.10;;
71975;SDS011;68326;52.124;5.424;2023-05-20T13:12:55;5.32;;;1.25;;
71975;SDS011;68326;52.124;5.424;2023-05-20T13:15:21;4.33;;;1.60;;
71975;SDS011;68326;52.124;5.424;2023-05-20T13:17:48;2.72;;;1.05;;
71975;SDS011;68326;52.124;5.424;2023-05-20T13:20:14;5.93;;;1.38;;
71975;SDS011;68326;52.124;5.424;2023-05-20T13:22:44;3.83;;;0.75;;
71975;SDS011;68326;52.124;5.424;2023-05-20T13:25:11;4.18;;;0.93;;
71975;SDS011;68326;52.124;5.424;2023-05-20T13:27:38;1.73;;;0.87;;
71975;SDS011;68326;52.124;5.424;2023-05-20T13:30:05;2.45;;;1.05;;
71975;SDS011;68326;52.124;5.424;2023-05-20T13:32:33;3.22;;;0.98;;
71975;SDS011;68326;52.124;5.424;2023-05-20T13:34:59;1.77;;;1.00;;
71975;SDS011;68326;52.124;5.424;2023-05-20T13:37:26;2.53;;;1.10;;
71975;SDS011;68326;52.124;5.424;2023-05-20T13:39:52;2.20;;;0.80;;
71975;SDS011;68326;52.124;5.424;2023-05-20T13:42:19;3.42;;;1.58;;
71975;SDS011;68326;52.124;5.424;2023-05-20T13:44:46;2.88;;;1.00;;
71975;SDS011;68326;52.124;5.424;2023-05-20T13:47:13;4.55;;;1.45;;
71975;SDS011;68326;52.124;5.424;2023-05-20T13:49:39;1.52;;;0.90;;
71975;SDS011;68326;52.124;5.424;2023-05-20T13:52:05;1.40;;;1.07;;
71975;SDS011;68326;52.124;5.424;2023-05-20T13:54:32;1.35;;;1.00;;
71975;SDS011;68326;52.124;5.424;2023-05-20T13:56:58;2.60;;;1.00;;
71975;SDS011;68326;52.124;5.424;2023-05-20T13:59:26;1.63;;;0.85;;
71975;SDS011;68326;52.124;5.424;2023-05-20T14:01:53;2.58;;;1.10;;
71975;SDS011;68326;52.124;5.424;2023-05-20T14:04:20;1.53;;;0.80;;
71975;SDS011;68326;52.124;5.424;2023-05-20T14:06:47;2.33;;;0.90;;
71975;SDS011;68326;52.124;5.424;2023-05-20T14:09:13;2.20;;;1.10;;
71975;SDS011;68326;52.124;5.424;2023-05-20T14:11:40;2.30;;;0.88;;
71975;SDS011;68326;52.124;5.424;2023-05-20T14:14:07;6.93;;;1.17;;
71975;SDS011;68326;52.124;5.424;2023-05-20T14:16:33;1.83;;;1.10;;
71975;SDS011;68326;52.124;5.424;2023-05-20T14:19:00;2.38;;;0.80;;
71975;SDS011;68326;52.124;5.424;2023-05-20T14:21:27;3.13;;;0.90;;
71975;SDS011;68326;52.124;5.424;2023-05-20T14:23:53;3.25;;;1.00;;
71975;SDS011;68326;52.124;5.424;2023-05-20T14:26:20;4.13;;;0.95;;
71975;SDS011;68326;52.124;5.424;2023-05-20T14:28:46;2.77;;;0.90;;
71975;SDS011;68326;52.124;5.424;2023-05-20T14:31:13;5.15;;;0.80;;
71975;SDS011;68326;52.124;5.424;2023-05-20T14:33:39;3.92;;;0.60;;
71975;SDS011;68326;52.124;5.424;2023-05-20T14:36:06;2.60;;;1.60;;
71975;SDS011;68326;52.124;5.424;2023-05-20T14:38:33;1.80;;;0.98;;
71975;SDS011;68326;52.124;5.424;2023-05-20T14:40:59;2.87;;;1.20;;
71975;SDS011;68326;52.124;5.424;2023-05-20T14:43:26;3.30;;;0.90;;
71975;SDS011;68326;52.124;5.424;2023-05-20T14:45:52;2.88;;;0.85;;
71975;SDS011;68326;52.124;5.424;2023-05-20T14:48:19;1.90;;;0.90;;
71975;SDS011;68326;52.124;5.424;2023-05-20T14:50:45;2.85;;;0.80;;
71975;SDS011;68326;52.124;5.424;2023-05-20T14:53:15;1.77;;;0.70;;